Time;durP1;ratioP1;P1;durP2;ratioP2;P2;SDS_P1;SDS_P2;PMS_P1;PMS_P2;Temp;Humidity;BMP_temperature;BMP_pressure;BME280_temperature;BME280_humidity;BME280_pressure;Samples;Min_cycle;Max_cycle;Signal;HPM_P1;HPM_P2
2024/01/15 00:00:14;;;;;;;26.25;16.55;;;;;;;-0.58;48.04;93241.03;5112401;28;20029;-68
2024/01/15 00:02:39;;;;;;;29.30;16.38;;;;;;;-0.46;47.58;93238.94;5112462;28;20051;-68
2024/01/15 00:05:05;;;;;;;29.20;17.63;;;;;;;-0.37;47.82;93255.69;5112355;28;20039;-67
2024/01/15 00:07:30;;;;;;;28.45;16.17;;;;;;;-0.43;47.75;93238.41;5112121;28;20032;-66
2024/01/15 00:09:55;;;;;;;34.17;17.95;;;;;;;-0.46;47.59;93240.78;5111907;28;20522;-68
2024/01/15 00:12:21;;;;;;;30.48;17.60;;;;;;;-0.32;47.56;93247.06;5093770;28;20072;-68
2024/01/15 00:14:46;;;;;;;27.95;17.42;;;;;;;-0.37;47.51;93245.22;5112105;28;20030;-67
2024/01/15 00:17:12;;;;;;;26.33;15.32;;;;;;;-0.52;47.96;93235.53;5112629;28;20504;-68
2024/01/15 00:19:38;;;;;;;30.95;16.70;;;;;;;-0.47;47.71;93226.94;5094242;28;20240;-68
2024/01/15 00:22:04;;;;;;;31.55;16.58;;;;;;;-0.34;47.36;93239.50;5112315;28;20545;-68
2024/01/15 00:24:29;;;;;;;33.50;18.00;;;;;;;-0.48;47.85;93233.19;5112031;28;20024;-67
2024/01/15 00:26:55;;;;;;;29.25;16.52;;;;;;;-0.52;47.93;93238.16;5112823;28;20058;-67
2024/01/15 00:29:20;;;;;;;31.92;18.10;;;;;;;-0.47;47.77;93244.41;5112419;28;20034;-68
2024/01/15 00:31:46;;;;;;;28.20;16.63;;;;;;;-0.63;48.04;93226.09;5112290;28;20035;-67
2024/01/15 00:34:11;;;;;;;32.30;18.90;;;;;;;-0.57;47.90;93242.56;5112344;28;20031;-68
2024/01/15 00:36:37;;;;;;;28.00;16.63;;;;;;;-0.49;47.77;93238.69;5111229;28;20057;-68
2024/01/15 00:39:04;;;;;;;33.72;17.52;;;;;;;-0.65;47.97;93233.44;5112269;28;20030;-67
2024/01/15 00:41:30;;;;;;;32.92;18.17;;;;;;;-0.67;47.93;93237.31;5112337;28;20027;-67
2024/01/15 00:43:56;;;;;;;31.55;18.10;;;;;;;-0.65;47.67;93236.03;5112267;28;20046;-67
2024/01/15 00:46:21;;;;;;;31.90;18.30;;;;;;;-0.80;47.98;93209.88;5112387;28;20035;-68
2024/01/15 00:48:47;;;;;;;34.03;18.23;;;;;;;-0.62;48.08;93255.63;5112238;28;20057;-68
2024/01/15 00:51:12;;;;;;;32.15;18.00;;;;;;;-0.61;47.91;93251.97;5112527;28;20034;-67
2024/01/15 00:53:38;;;;;;;32.63;18.75;;;;;;;-0.63;47.85;93248.84;5111915;28;20036;-67
2024/01/15 00:56:03;;;;;;;31.17;16.85;;;;;;;-0.71;48.13;93236.28;5111412;28;20115;-68
2024/01/15 00:58:29;;;;;;;26.50;16.75;;;;;;;-0.74;48.28;93239.41;5111970;28;20067;-67
2024/01/15 01:00:55;;;;;;;28.00;16.05;;;;;;;-0.74;48.24;93242.81;5112046;28;20030;-67
2024/01/15 01:03:20;;;;;;;26.67;16.50;;;;;;;-0.78;48.40;93238.34;5111756;28;20479;-68
2024/01/15 01:05:48;;;;;;;33.50;15.98;;;;;;;-0.81;48.47;93236.25;5112199;28;20062;-68
2024/01/15 01:08:13;;;;;;;25.92;15.30;;;;;;;-0.93;48.72;93231.25;5111817;28;20032;-68
2024/01/15 01:10:39;;;;;;;25.67;14.77;;;;;;;-0.78;48.98;93241.75;5111811;28;20067;-68
2024/01/15 01:13:04;;;;;;;27.15;14.65;;;;;;;-0.90;48.94;93233.34;5111284;28;20032;-68
2024/01/15 01:15:30;;;;;;;28.13;15.80;;;;;;;-0.76;48.55;93239.66;5111321;28;20106;-68
2024/01/15 01:17:55;;;;;;;25.25;15.52;;;;;;;-0.85;48.64;93225.53;5111943;28;20026;-68
2024/01/15 01:20:20;;;;;;;27.92;16.20;;;;;;;-0.74;48.45;93232.34;5111782;28;20038;-68
2024/01/15 01:22:46;;;;;;;27.45;17.75;;;;;;;-0.78;48.52;93220.88;5111377;28;20054;-68
2024/01/15 01:25:11;;;;;;;26.88;14.52;;;;;;;-0.71;48.35;93225.81;5111362;28;20040;-68
2024/01/15 01:27:37;;;;;;;25.23;14.05;;;;;;;-0.67;48.36;93221.66;5111323;28;20361;-68
2024/01/15 01:30:02;;;;;;;28.20;16.13;;;;;;;-0.69;48.21;93213.31;5111929;28;20019;-68
2024/01/15 01:32:28;;;;;;;28.95;16.10;;;;;;;-0.85;48.38;93196.03;5111622;28;20032;-68
2024/01/15 01:34:54;;;;;;;25.83;14.90;;;;;;;-0.68;48.53;93212.28;5111399;28;20535;-68
2024/01/15 01:37:19;;;;;;;28.55;15.98;;;;;;;-0.83;48.29;93183.50;5111501;28;20039;-68
2024/01/15 01:39:45;;;;;;;31.05;15.88;;;;;;;-0.65;48.21;93220.38;5110994;28;20042;-67
2024/01/15 01:42:11;;;;;;;26.60;14.52;;;;;;;-0.82;48.64;93214.56;5111903;28;20020;-68
2024/01/15 01:44:37;;;;;;;27.00;16.88;;;;;;;-0.95;48.80;93208.00;5111055;28;20058;-68
2024/01/15 01:47:04;;;;;;;26.17;14.68;;;;;;;-0.76;48.57;93212.75;5110345;28;20511;-68
2024/01/15 01:49:30;;;;;;;25.65;15.13;;;;;;;-0.85;48.34;93198.63;5110901;28;20554;-67
2024/01/15 01:51:57;;;;;;;28.27;14.35;;;;;;;-0.74;48.69;93215.91;5110963;28;20076;-68
2024/01/15 01:54:23;;;;;;;28.17;16.02;;;;;;;-0.71;48.51;93210.16;5110105;28;20032;-67
2024/01/15 01:56:50;;;;;;;26.10;15.30;;;;;;;-1.24;48.93;93172.94;5111324;28;20011;-67
2024/01/15 01:59:16;;;;;;;33.83;16.65;;;;;;;-1.08;49.13;93197.28;5110344;28;20125;-68
2024/01/15 02:01:44;;;;;;;33.97;16.80;;;;;;;-1.33;49.76;93197.16;5110924;28;20038;-68
2024/01/15 02:04:10;;;;;;;27.85;15.77;;;;;;;-1.34;49.74;93191.16;5111128;28;20031;-67
2024/01/15 02:06:36;;;;;;;28.98;16.35;;;;;;;-1.61;50.10;93146.19;5110958;28;20085;-68
2024/01/15 02:09:01;;;;;;;33.35;17.10;;;;;;;-1.21;49.73;93182.06;5092978;28;20023;-68
2024/01/15 02:11:27;;;;;;;32.67;17.40;;;;;;;-1.14;49.45;93186.03;5110408;28;20051;-67
2024/01/15 02:13:52;;;;;;;29.88;16.30;;;;;;;-1.02;49.34;93189.19;5109688;28;20040;-68
2024/01/15 02:16:17;;;;;;;34.65;16.60;;;;;;;-1.06;48.98;93161.25;5110710;28;20107;-68
2024/01/15 02:18:44;;;;;;;28.45;16.70;;;;;;;-0.79;48.51;93187.97;5111064;28;20373;-67
2024/01/15 02:21:10;;;;;;;35.28;18.05;;;;;;;-0.96;48.84;93172.50;5110824;28;20051;-68
2024/01/15 02:23:37;;;;;;;28.35;17.98;;;;;;;-1.02;48.87;93147.41;5110856;28;20396;-67
2024/01/15 02:26:03;;;;;;;35.05;18.88;;;;;;;-1.23;49.42;93135.38;5110708;28;20043;-68
2024/01/15 02:28:29;;;;;;;34.67;18.45;;;;;;;-1.04;49.18;93112.19;5110827;28;20096;-68
2024/01/15 02:30:54;;;;;;;30.17;18.20;;;;;;;-0.89;48.97;93127.09;5110943;28;20543;-67
2024/01/15 02:33:20;;;;;;;32.92;18.73;;;;;;;-0.84;48.81;93137.56;5110816;28;20032;-68
2024/01/15 02:35:46;;;;;;;33.65;17.48;;;;;;;-0.83;48.83;93134.69;5111323;28;20034;-68
2024/01/15 02:38:12;;;;;;;36.35;18.75;;;;;;;-0.70;48.32;93143.84;5110952;28;20077;-68
2024/01/15 02:40:38;;;;;;;35.72;18.35;;;;;;;-0.71;47.95;93137.03;5110668;28;20573;-67
2024/01/15 02:43:04;;;;;;;35.38;17.83;;;;;;;-0.75;48.46;93136.78;5110939;28;20104;-68
2024/01/15 02:45:29;;;;;;;32.67;18.10;;;;;;;-0.73;48.44;93126.88;5110390;28;20496;-67
2024/01/15 02:47:55;;;;;;;34.33;19.42;;;;;;;-0.71;48.36;93121.38;5111181;28;20123;-68
2024/01/15 02:50:20;;;;;;;33.83;18.13;;;;;;;-0.57;48.40;93141.50;5110694;28;20506;-68
2024/01/15 02:52:46;;;;;;;35.08;19.05;;;;;;;-0.68;48.54;93120.88;5110746;28;20050;-68
2024/01/15 02:55:11;;;;;;;32.42;20.08;;;;;;;-0.47;48.37;93134.72;5110640;28;20028;-68
2024/01/15 02:57:36;;;;;;;32.08;19.17;;;;;;;-0.57;48.21;93117.22;5110505;28;20028;-68
2024/01/15 03:00:03;;;;;;;32.13;21.33;;;;;;;-0.48;48.09;93126.09;5113780;28;20032;-67
2024/01/15 03:02:31;;;;;;;33.30;16.55;;;;;;;-0.42;47.99;93129.50;5114309;28;20047;-68
2024/01/15 03:04:57;;;;;;;31.65;18.48;;;;;;;-0.40;48.09;93122.97;5114055;28;20114;-67
2024/01/15 03:07:22;;;;;;;28.15;17.23;;;;;;;-0.33;47.94;93123.47;5095166;28;20111;-68
2024/01/15 03:09:48;;;;;;;24.90;15.43;;;;;;;-0.30;47.85;93122.97;5114092;28;20031;-67
2024/01/15 03:12:13;;;;;;;29.30;18.52;;;;;;;-0.32;47.83;93113.81;5114577;28;20031;-67
2024/01/15 03:14:38;;;;;;;31.73;15.43;;;;;;;-0.40;48.11;93111.72;5113516;28;20504;-68
2024/01/15 03:17:04;;;;;;;31.27;16.42;;;;;;;-0.35;47.82;93117.75;5114094;28;20035;-68
2024/01/15 03:19:30;;;;;;;31.67;17.35;;;;;;;-0.38;48.12;93112.25;5114026;28;20499;-67
2024/01/15 03:21:56;;;;;;;26.50;15.00;;;;;;;-0.49;48.43;93098.41;5095751;28;20020;-67
2024/01/15 03:24:21;;;;;;;29.98;18.00;;;;;;;-0.60;48.07;93061.06;5113748;28;20396;-68
2024/01/15 03:26:47;;;;;;;27.50;14.70;;;;;;;-0.57;48.66;93098.91;5114016;28;20092;-68
2024/01/15 03:29:12;;;;;;;26.63;14.30;;;;;;;-0.45;48.54;93080.38;5113807;28;20032;-68
2024/01/15 03:31:37;;;;;;;24.65;14.23;;;;;;;-0.63;48.38;93077.25;5113538;28;20038;-67
2024/01/15 03:34:03;;;;;;;26.17;14.23;;;;;;;-0.86;49.89;93101.25;5113453;28;20573;-68
2024/01/15 03:36:28;;;;;;;26.63;14.98;;;;;;;-0.73;49.75;93102.59;5113556;28;20026;-67
2024/01/15 03:38:54;;;;;;;29.50;14.35;;;;;;;-1.10;49.84;93090.53;5114173;28;20072;-68
2024/01/15 03:41:19;;;;;;;31.15;15.70;;;;;;;-1.31;50.89;93117.59;5113733;28;20036;-68
2024/01/15 03:43:44;;;;;;;33.65;19.33;;;;;;;-1.39;50.98;93079.75;5113112;28;20450;-67
2024/01/15 03:46:10;;;;;;;35.42;19.55;;;;;;;-1.07;50.43;93084.78;5113712;28;20030;-67
2024/01/15 03:48:35;;;;;;;29.63;17.20;;;;;;;-0.87;49.92;93098.94;5113425;28;20031;-68
2024/01/15 03:51:01;;;;;;;30.70;16.95;;;;;;;-0.78;49.81;93105.19;5113764;28;20388;-68
2024/01/15 03:53:26;;;;;;;32.97;16.60;;;;;;;-0.59;49.37;93119.31;5112961;28;20316;-68
2024/01/15 03:55:52;;;;;;;32.95;16.83;;;;;;;-0.79;49.49;93087.97;5112361;28;20112;-68
2024/01/15 03:58:17;;;;;;;23.73;15.02;;;;;;;-0.60;49.25;93102.84;5094474;28;20115;-66
2024/01/15 04:00:43;;;;;;;28.35;16.33;;;;;;;-0.57;48.98;93088.47;5112517;28;20484;-67
2024/01/15 04:03:08;;;;;;;37.33;17.58;;;;;;;-0.44;48.72;93074.91;5113199;28;20103;-67
2024/01/15 04:05:34;;;;;;;29.95;16.23;;;;;;;-0.45;48.84;93078.56;5113265;28;20399;-68
2024/01/15 04:07:59;;;;;;;28.50;15.88;;;;;;;-0.54;48.69;93044.34;5112960;28;20032;-68
2024/01/15 04:10:25;;;;;;;29.27;16.33;;;;;;;-0.26;48.39;93069.13;5112288;28;20488;-68
2024/01/15 04:12:50;;;;;;;35.85;19.25;;;;;;;-0.37;48.32;93051.09;5110025;28;20030;-67
2024/01/15 04:15:16;;;;;;;39.17;17.73;;;;;;;-0.34;48.05;93072.28;5109721;28;20024;-67
2024/01/15 04:17:41;;;;;;;31.48;16.75;;;;;;;-0.85;49.22;93081.16;5111105;28;20500;-68
2024/01/15 04:20:07;;;;;;;28.13;16.77;;;;;;;-0.65;48.80;93081.19;5110651;28;20035;-67
2024/01/15 04:22:35;;;;;;;30.73;16.80;;;;;;;-0.58;48.61;93086.94;5110768;28;20530;-68
2024/01/15 04:25:00;;;;;;;27.55;15.75;;;;;;;-0.54;48.28;93080.13;5110665;28;20059;-67
2024/01/15 04:27:26;;;;;;;29.75;16.10;;;;;;;-0.52;48.39;93089.25;5112168;28;20433;-68
2024/01/15 04:29:51;;;;;;;28.40;16.30;;;;;;;-0.72;48.33;93084.03;5113121;28;20031;-68
2024/01/15 04:32:17;;;;;;;31.98;17.67;;;;;;;-0.65;48.44;93086.41;5112739;28;20054;-68
2024/01/15 04:34:42;;;;;;;31.67;17.15;;;;;;;-0.66;48.65;93072.56;5112447;28;20111;-68
2024/01/15 04:37:07;;;;;;;30.85;16.60;;;;;;;-0.77;48.45;93080.63;5112373;28;20024;-68
2024/01/15 04:39:33;;;;;;;32.72;18.35;;;;;;;-0.82;48.59;93070.19;5112323;28;20534;-68
2024/01/15 04:41:58;;;;;;;29.33;16.90;;;;;;;-0.77;48.75;93081.41;5112633;28;20068;-68
2024/01/15 04:44:23;;;;;;;29.23;17.15;;;;;;;-0.82;48.64;93062.34;5112489;28;20455;-68
2024/01/15 04:46:49;;;;;;;32.28;14.88;;;;;;;-0.87;48.88;93073.56;5112149;28;20058;-68
2024/01/15 04:49:14;;;;;;;22.90;13.25;;;;;;;-0.94;48.82;93057.41;5112234;28;20032;-68
2024/01/15 04:51:40;;;;;;;23.60;13.18;;;;;;;-0.84;48.73;93080.91;5093858;28;20042;-68
2024/01/15 04:54:05;;;;;;;23.20;12.68;;;;;;;-0.92;49.13;93078.03;5111784;28;20035;-68
2024/01/15 04:56:30;;;;;;;26.02;14.13;;;;;;;-1.06;49.26;93035.97;5112023;28;20496;-68
2024/01/15 04:58:56;;;;;;;21.75;12.88;;;;;;;-1.00;49.32;93045.38;5111751;28;20400;-68
2024/01/15 05:01:21;;;;;;;25.80;13.88;;;;;;;-1.19;49.51;93026.84;5112121;28;20103;-68
2024/01/15 05:03:46;;;;;;;26.08;14.38;;;;;;;-0.95;49.45;93048.78;5112100;28;20560;-68
2024/01/15 05:06:12;;;;;;;25.23;14.43;;;;;;;-1.06;49.39;93026.31;5112339;28;20038;-68
2024/01/15 05:08:37;;;;;;;29.25;14.95;;;;;;;-0.91;49.32;93046.44;5112015;28;20503;-68
2024/01/15 05:11:03;;;;;;;32.13;16.65;;;;;;;-1.15;49.72;93038.31;5111886;28;20123;-67
2024/01/15 05:13:28;;;;;;;33.50;18.50;;;;;;;-2.08;52.53;93044.56;5112004;28;20032;-67
2024/01/15 05:15:54;;;;;;;42.30;19.75;;;;;;;-1.97;51.74;93004.47;5111118;28;20038;-68
2024/01/15 05:18:19;;;;;;;44.85;19.00;;;;;;;-1.60;50.81;93019.97;5111770;28;20076;-68
2024/01/15 05:20:45;;;;;;;38.92;21.73;;;;;;;-1.62;50.88;93030.69;5111214;28;20057;-68
2024/01/15 05:23:10;;;;;;;45.20;22.55;;;;;;;-1.84;51.39;93015.22;5111250;28;20039;-68
2024/01/15 05:25:35;;;;;;;38.90;21.40;;;;;;;-1.68;51.42;93059.59;5111350;28;20059;-68
2024/01/15 05:28:01;;;;;;;50.92;28.05;;;;;;;-2.07;51.86;93053.94;5111722;28;20034;-68
2024/01/15 05:30:26;;;;;;;62.40;36.85;;;;;;;-2.42;52.79;93023.28;5111487;28;20502;-68
2024/01/15 05:32:52;;;;;;;43.28;24.27;;;;;;;-2.17;52.64;93041.66;5111788;28;20027;-67
2024/01/15 05:35:17;;;;;;;39.85;22.67;;;;;;;-2.06;53.08;93050.31;5109925;28;20106;-68
2024/01/15 05:37:45;;;;;;;36.63;21.38;;;;;;;-1.93;52.37;93042.81;5109915;28;20032;-68
2024/01/15 05:40:11;;;;;;;34.38;19.45;;;;;;;-2.08;52.96;93039.34;5110069;28;20038;-68
2024/01/15 05:42:37;;;;;;;40.72;24.42;;;;;;;-2.00;52.63;93044.88;5110399;28;20031;-68
2024/01/15 05:45:04;;;;;;;34.50;22.67;;;;;;;-2.26;53.19;93043.16;5110450;28;20035;-68
2024/01/15 05:47:29;;;;;;;45.65;23.45;;;;;;;-2.03;52.90;93032.34;5110083;28;20024;-68
2024/01/15 05:49:56;;;;;;;37.22;22.30;;;;;;;-2.23;53.15;93016.59;5109746;28;20035;-68
2024/01/15 05:52:22;;;;;;;25.88;15.15;;;;;;;-1.77;52.45;93029.84;5110819;28;20039;-68
2024/01/15 05:54:47;;;;;;;25.50;14.25;;;;;;;-1.70;52.04;93025.94;5109945;28;20035;-67
2024/01/15 05:57:13;;;;;;;22.10;12.82;;;;;;;-1.60;51.82;93012.16;5111072;28;20024;-67
2024/01/15 05:59:38;;;;;;;31.13;18.98;;;;;;;-1.88;51.94;93024.59;5109842;28;20032;-68
2024/01/15 06:02:04;;;;;;;36.33;20.13;;;;;;;-1.62;51.93;93038.50;5110425;28;20561;-68
2024/01/15 06:04:29;;;;;;;53.05;31.08;;;;;;;-1.52;51.60;93032.53;5110500;28;20076;-68
2024/01/15 06:06:55;;;;;;;52.22;30.33;;;;;;;-1.48;51.17;93010.09;5110621;28;20077;-67
2024/01/15 06:09:20;;;;;;;39.00;25.80;;;;;;;-1.32;50.80;93027.34;5110621;28;20070;-67
2024/01/15 06:11:45;;;;;;;34.53;21.05;;;;;;;-1.41;50.74;93023.69;5110538;28;20026;-67
2024/01/15 06:14:11;;;;;;;36.55;20.40;;;;;;;-1.28;50.70;93028.41;5109175;28;20039;-68
2024/01/15 06:16:36;;;;;;;32.90;20.92;;;;;;;-1.36;51.09;93021.06;5110115;28;20036;-68
2024/01/15 06:19:02;;;;;;;51.60;25.23;;;;;;;-1.20;50.75;93030.50;5110527;28;20499;-68
2024/01/15 06:21:27;;;;;;;37.78;21.60;;;;;;;-1.25;50.47;93022.66;5110419;28;20024;-68
2024/01/15 06:23:52;;;;;;;45.42;26.60;;;;;;;-1.91;52.12;93019.91;5110955;28;20032;-67
2024/01/15 06:26:18;;;;;;;36.78;24.88;;;;;;;-1.63;51.62;93004.84;5110647;28;20520;-67
2024/01/15 06:28:43;;;;;;;42.28;26.60;;;;;;;-1.55;51.72;93022.59;5111039;28;20028;-68
2024/01/15 06:31:09;;;;;;;38.45;24.65;;;;;;;-1.52;51.58;93006.44;5110553;28;20484;-68
2024/01/15 06:33:34;;;;;;;41.75;24.67;;;;;;;-1.47;51.57;93017.69;5112975;28;20046;-67
2024/01/15 06:35:59;;;;;;;50.58;26.90;;;;;;;-1.42;51.50;93029.94;5115035;28;20027;-68
2024/01/15 06:38:25;;;;;;;46.72;27.95;;;;;;;-1.31;51.44;93043.78;5095873;28;20036;-68
2024/01/15 06:40:51;;;;;;;49.38;28.02;;;;;;;-1.29;51.68;93034.66;5096473;28;20556;-68
2024/01/15 06:43:17;;;;;;;54.10;33.33;;;;;;;-1.20;51.29;93040.13;5114715;28;20103;-68
2024/01/15 06:45:43;;;;;;;90.43;53.83;;;;;;;-1.24;51.40;93034.66;5096224;28;20408;-68
2024/01/15 06:48:09;;;;;;;63.30;35.15;;;;;;;-1.22;52.04;93037.81;5115358;28;20035;-68
2024/01/15 06:50:34;;;;;;;59.75;32.95;;;;;;;-1.23;51.79;93015.38;5114832;28;20027;-68
2024/01/15 06:53:00;;;;;;;93.13;54.53;;;;;;;-1.40;52.13;93043.50;5114559;28;20114;-68
2024/01/15 06:55:25;;;;;;;79.95;42.97;;;;;;;-1.47;52.76;93022.91;5113756;28;20032;-68
2024/01/15 06:57:51;;;;;;;66.63;39.05;;;;;;;-1.92;53.51;93023.53;5114655;28;20044;-68
2024/01/15 07:00:19;;;;;;;65.50;38.67;;;;;;;-2.17;55.08;93022.63;5114823;28;20084;-68
2024/01/15 07:02:45;;;;;;;71.53;40.75;;;;;;;-1.79;54.05;93024.09;5114830;28;20027;-68
2024/01/15 07:05:10;;;;;;;68.53;41.72;;;;;;;-1.62;54.03;93046.31;5114345;28;20028;-68
2024/01/15 07:07:36;;;;;;;105.18;58.53;;;;;;;-1.68;53.80;93055.16;5114359;28;20084;-68
2024/01/15 07:10:03;;;;;;;69.18;39.80;;;;;;;-1.71;54.40;93054.88;5114381;28;20028;-68
2024/01/15 07:12:29;;;;;;;74.72;42.10;;;;;;;-1.36;54.07;93056.81;5114260;28;20024;-68
2024/01/15 07:14:55;;;;;;;67.97;38.88;;;;;;;-1.31;53.25;93049.78;5114703;28;20015;-68
2024/01/15 07:17:20;;;;;;;74.50;39.70;;;;;;;-2.23;55.22;93047.88;5114009;28;20032;-68
2024/01/15 07:19:46;;;;;;;76.35;45.45;;;;;;;-1.70;55.00;93051.25;5114012;28;20057;-67
2024/01/15 07:22:12;;;;;;;91.70;53.15;;;;;;;-1.38;54.12;93023.16;5113975;28;20695;-68
2024/01/15 07:24:37;;;;;;;82.43;48.92;;;;;;;-1.11;53.26;93028.94;5113833;28;20031;-68
2024/01/15 07:27:04;;;;;;;75.43;47.83;;;;;;;-1.00;52.94;93035.72;5095762;28;20051;-68
2024/01/15 07:29:30;;;;;;;73.03;46.42;;;;;;;-0.90;52.72;93052.44;5113558;28;20036;-68
2024/01/15 07:31:55;;;;;;;66.20;44.70;;;;;;;-0.78;52.26;93022.44;5113542;28;20404;-68
2024/01/15 07:34:22;;;;;;;67.63;43.70;;;;;;;-1.05;52.88;93012.25;5113583;28;20040;-68
2024/01/15 07:36:47;;;;;;;124.07;67.47;;;;;;;-0.78;52.33;93016.44;5113620;28;20019;-68
2024/01/15 07:39:13;;;;;;;445.38;210.25;;;;;;;-1.29;53.00;93023.44;5113917;28;20089;-68
2024/01/15 07:41:39;;;;;;;212.93;103.68;;;;;;;-1.02;53.24;93037.81;5113329;28;20039;-68
2024/01/15 07:44:05;;;;;;;135.20;66.65;;;;;;;-1.03;52.84;93014.59;5112686;28;20035;-68
2024/01/15 07:46:30;;;;;;;127.20;65.10;;;;;;;-0.77;52.35;93026.59;5113451;28;20039;-68
2024/01/15 07:48:57;;;;;;;108.85;55.78;;;;;;;-0.56;52.28;93029.97;5113085;28;20024;-68
2024/01/15 07:51:23;;;;;;;87.07;48.72;;;;;;;-0.42;51.93;93051.13;5113171;28;20019;-68
2024/01/15 07:53:49;;;;;;;108.05;53.22;;;;;;;-1.05;52.59;93021.91;5113641;28;20023;-68
2024/01/15 07:56:14;;;;;;;111.50;59.85;;;;;;;-0.50;52.51;93026.31;5112332;28;20028;-68
2024/01/15 07:58:40;;;;;;;104.07;56.00;;;;;;;-0.22;51.72;93030.97;5112535;28;20035;-67
2024/01/15 08:01:06;;;;;;;99.25;50.60;;;;;;;-0.41;51.87;93022.13;5112335;28;20555;-68
2024/01/15 08:03:31;;;;;;;74.57;41.88;;;;;;;-0.40;52.16;92992.34;5112998;28;20098;-68
2024/01/15 08:05:59;;;;;;;62.03;35.88;;;;;;;-0.20;51.64;92994.91;5113501;28;20039;-68
2024/01/15 08:08:26;;;;;;;50.60;29.92;;;;;;;-0.87;52.01;92987.44;5113015;28;20024;-67
2024/01/15 08:10:52;;;;;;;56.30;32.78;;;;;;;-1.76;54.10;92966.25;5112854;28;20028;-68
2024/01/15 08:13:18;;;;;;;71.90;40.47;;;;;;;-1.58;54.59;93012.69;5111924;28;20081;-66
2024/01/15 08:15:43;;;;;;;73.05;42.05;;;;;;;-1.62;56.07;93022.84;5110355;28;20031;-68
2024/01/15 08:18:09;;;;;;;79.15;50.42;;;;;;;-1.50;55.90;93027.81;5110623;28;20103;-68
2024/01/15 08:20:34;;;;;;;81.97;43.97;;;;;;;-1.47;54.59;93001.25;5111712;28;20480;-67
2024/01/15 08:23:00;;;;;;;64.47;39.35;;;;;;;-1.08;54.10;93045.91;5112199;28;20112;-68
2024/01/15 08:25:25;;;;;;;76.28;44.38;;;;;;;-1.04;53.82;93036.50;5112076;28;20063;-67
2024/01/15 08:27:51;;;;;;;82.32;47.75;;;;;;;-1.04;53.90;93034.69;5111904;28;20411;-68
2024/01/15 08:30:18;;;;;;;81.93;44.08;;;;;;;-0.59;53.12;93030.50;5112109;28;20012;-67
2024/01/15 08:32:44;;;;;;;78.30;43.42;;;;;;;-0.67;53.18;93037.03;5094320;28;20106;-67
2024/01/15 08:35:10;;;;;;;85.80;46.47;;;;;;;-0.84;53.14;93030.53;5112041;28;20147;-69
2024/01/15 08:37:35;;;;;;;86.18;47.92;;;;;;;-0.70;53.53;93028.94;5112169;28;20454;-69
2024/01/15 08:40:01;;;;;;;95.05;51.65;;;;;;;-0.52;53.34;93020.56;5112429;28;20047;-69
2024/01/15 08:42:26;;;;;;;81.75;49.63;;;;;;;-0.34;52.16;92988.69;5112286;28;20019;-69
2024/01/15 08:44:51;;;;;;;91.72;49.25;;;;;;;-0.16;52.08;93001.16;5112740;28;20015;-69
2024/01/15 08:47:17;;;;;;;79.20;45.50;;;;;;;-0.16;52.24;93009.00;5112045;28;20031;-68
2024/01/15 08:49:44;;;;;;;81.53;48.60;;;;;;;0.15;51.70;93009.69;5111731;28;20571;-69
2024/01/15 08:52:09;;;;;;;85.70;50.03;;;;;;;0.18;51.76;93001.31;5112244;28;20028;-68
2024/01/15 08:54:35;;;;;;;88.32;51.90;;;;;;;0.37;51.39;93014.56;5111815;28;20051;-69
2024/01/15 08:57:00;;;;;;;160.88;57.85;;;;;;;0.25;51.53;92993.19;5111651;28;20157;-68
2024/01/15 08:59:26;;;;;;;108.90;46.85;;;;;;;0.38;51.14;92989.97;5111650;28;20430;-68
2024/01/15 09:01:57;;;;;;;69.68;41.90;;;;;;;0.35;51.29;92987.88;5111751;28;20035;-69
2024/01/15 09:04:23;;;;;;;71.28;38.42;;;;;;;0.36;51.04;92968.50;5112152;28;20081;-69
2024/01/15 09:06:48;;;;;;;69.95;39.78;;;;;;;0.39;51.19;92968.00;5111684;28;20028;-68
2024/01/15 09:09:17;;;;;;;67.50;39.35;;;;;;;0.39;51.25;92960.16;5112478;28;20420;-68
2024/01/15 09:11:42;;;;;;;70.63;39.60;;;;;;;0.65;50.77;92961.53;5112051;28;20028;-68
2024/01/15 09:14:09;;;;;;;58.88;37.13;;;;;;;0.73;50.46;92931.41;5111568;28;20405;-68
2024/01/15 09:16:34;;;;;;;60.33;35.50;;;;;;;0.68;49.98;92910.50;5110936;28;20236;-69
2024/01/15 09:19:00;;;;;;;61.47;39.00;;;;;;;0.60;50.83;92917.09;5111745;28;20557;-68
2024/01/15 09:21:25;;;;;;;68.32;40.17;;;;;;;0.84;50.94;92921.66;5111258;28;20015;-68
2024/01/15 09:23:51;;;;;;;80.40;47.20;;;;;;;0.56;50.89;92908.22;5112517;28;20031;-68
2024/01/15 09:26:17;;;;;;;73.72;45.50;;;;;;;0.65;49.90;92911.81;5111439;28;20047;-68
2024/01/15 09:28:42;;;;;;;73.28;44.22;;;;;;;0.31;51.15;92911.00;5111838;28;20544;-69
2024/01/15 09:31:08;;;;;;;92.82;51.50;;;;;;;0.09;52.79;92921.09;5111412;28;20767;-68
2024/01/15 09:33:33;;;;;;;83.60;48.55;;;;;;;0.21;52.69;92916.28;5111539;28;20388;-69
2024/01/15 09:36:03;;;;;;;88.05;46.90;;;;;;;0.14;52.94;92913.22;5111794;28;20024;-68
2024/01/15 09:38:32;;;;;;;64.95;41.10;;;;;;;0.22;51.79;92902.19;5111233;28;20099;-69
2024/01/15 09:40:58;;;;;;;59.35;28.83;;;;;;;0.73;49.17;92892.16;5111443;28;20504;-69
2024/01/15 09:43:23;;;;;;;36.35;22.40;;;;;;;0.28;49.77;92909.72;5111382;28;20040;-68
2024/01/15 09:45:50;;;;;;;37.90;22.73;;;;;;;-0.23;49.45;92872.59;5111606;28;20377;-68
2024/01/15 09:48:16;;;;;;;49.42;27.98;;;;;;;-0.14;50.72;92886.66;5111462;28;20056;-68
2024/01/15 09:50:42;;;;;;;64.05;33.75;;;;;;;0.20;50.15;92870.31;5111935;28;20016;-69
2024/01/15 09:53:09;;;;;;;59.83;33.97;;;;;;;0.29;50.58;92874.69;5111034;28;20412;-67
2024/01/15 09:55:37;;;;;;;61.63;32.10;;;;;;;-0.02;50.22;92846.38;5109919;28;20089;-69
2024/01/15 09:58:03;;;;;;;53.45;31.85;;;;;;;0.00;50.85;92873.81;5111281;28;20059;-69
2024/01/15 10:00:32;;;;;;;54.40;32.58;;;;;;;0.19;50.42;92855.66;5110263;28;20019;-69
2024/01/15 10:03:00;;;;;;;59.13;32.03;;;;;;;0.21;50.32;92840.47;5111399;28;20023;-68
2024/01/15 10:05:26;;;;;;;53.58;32.30;;;;;;;0.30;50.56;92849.31;5110774;28;20032;-69
2024/01/15 10:07:53;;;;;;;59.50;33.50;;;;;;;-0.23;51.44;92883.06;5111859;28;20051;-69
2024/01/15 10:10:19;;;;;;;66.88;36.53;;;;;;;-0.42;51.34;92853.38;5115214;28;20032;-69
2024/01/15 10:12:44;;;;;;;71.38;37.40;;;;;;;-0.19;52.03;92863.19;5097105;28;20020;-68
2024/01/15 10:15:11;;;;;;;65.45;34.92;;;;;;;0.12;49.93;92832.41;5115919;28;20027;-68
2024/01/15 10:17:38;;;;;;;72.20;37.63;;;;;;;0.29;49.49;92835.44;5115199;28;20038;-68
2024/01/15 10:20:10;;;;;;;60.47;37.05;;;;;;;0.63;50.13;92827.59;5115133;28;20566;-68
2024/01/15 10:22:40;;;;;;;66.05;35.83;;;;;;;0.73;48.81;92795.31;5114602;28;20035;-68
2024/01/15 10:25:05;;;;;;;59.78;37.22;;;;;;;0.87;49.39;92826.84;5113218;28;20043;-68
2024/01/15 10:27:31;;;;;;;60.08;36.30;;;;;;;0.70;48.82;92801.88;5112405;28;20030;-69
2024/01/15 10:30:00;;;;;;;62.08;35.90;;;;;;;0.60;48.70;92824.72;5113110;28;20065;-68
2024/01/15 10:32:26;;;;;;;75.90;45.50;;;;;;;0.95;48.70;92802.69;5113083;28;20084;-69
2024/01/15 10:34:52;;;;;;;75.05;44.95;;;;;;;0.91;48.01;92791.22;5112766;28;20035;-68
2024/01/15 10:37:18;;;;;;;78.38;43.95;;;;;;;0.87;49.35;92811.94;5112981;28;20089;-69
2024/01/15 10:39:44;;;;;;;86.28;51.65;;;;;;;0.57;49.42;92812.22;5113351;28;20036;-69
2024/01/15 10:42:09;;;;;;;87.07;48.13;;;;;;;0.66;48.98;92800.88;5115112;28;20552;-69
2024/01/15 10:44:35;;;;;;;85.63;51.30;;;;;;;0.79;48.47;92823.75;5114243;28;20036;-68
2024/01/15 10:47:01;;;;;;;91.80;53.85;;;;;;;0.69;48.99;92800.31;5114781;28;20032;-68
2024/01/15 10:49:28;;;;;;;79.80;46.92;;;;;;;0.97;48.88;92800.56;5114309;28;20464;-69
2024/01/15 10:51:54;;;;;;;80.75;48.30;;;;;;;1.05;48.29;92797.34;5114502;28;20534;-69
2024/01/15 10:54:20;;;;;;;88.70;53.58;;;;;;;0.27;50.17;92755.69;5095891;28;20445;-69
2024/01/15 10:56:47;;;;;;;94.07;54.38;;;;;;;0.70;49.51;92780.94;5114818;28;20016;-69
2024/01/15 10:59:13;;;;;;;95.25;52.95;;;;;;;0.59;49.65;92789.97;5114313;28;20115;-69
2024/01/15 11:01:39;;;;;;;96.95;49.88;;;;;;;0.99;49.30;92782.72;5114367;28;20039;-68
2024/01/15 11:04:05;;;;;;;79.80;49.83;;;;;;;1.32;48.04;92758.28;5114177;28;20032;-68
2024/01/15 11:06:56;;;;;;;87.10;51.42;;;;;;;1.26;49.12;92776.94;5114253;28;20030;-69
2024/01/15 11:09:22;;;;;;;97.55;54.53;;;;;;;1.10;48.73;92765.88;5114080;28;20019;-68
2024/01/15 11:11:51;;;;;;;92.28;53.25;;;;;;;1.08;49.12;92762.75;5114416;28;20027;-69